sensor_id;sensor_type;location;lat;lon;timestamp;P1;durP1;ratioP1;P2;durP2;ratioP2
16866;SDS011;8550;52.596;13.320;2022-12-07T00:02:19;10.40;;;4.23;;
16866;SDS011;8550;52.596;13.320;2022-12-07T00:07:21;7.03;;;3.08;;
16866;SDS011;8550;52.596;13.320;2022-12-07T00:12:23;6.55;;;1.67;;
16866;SDS011;8550;52.596;13.320;2022-12-07T00:17:26;6.43;;;2.50;;
16866;SDS011;8550;52.596;13.320;2022-12-07T00:22:28;7.25;;;2.67;;
16866;SDS011;8550;52.596;13.320;2022-12-07T00:27:30;5.50;;;2.45;;
16866;SDS011;8550;52.596;13.320;2022-12-07T00:32:33;7.37;;;2.00;;
16866;SDS011;8550;52.596;13.320;2022-12-07T00:37:35;7.63;;;3.27;;
16866;SDS011;8550;52.596;13.320;2022-12-07T00:42:37;4.70;;;2.08;;
16866;SDS011;8550;52.596;13.320;2022-12-07T00:47:41;4.57;;;2.25;;
16866;SDS011;8550;52.596;13.320;2022-12-07T00:52:43;5.10;;;2.00;;
16866;SDS011;8550;52.596;13.320;2022-12-07T00:57:45;7.72;;;2.20;;
16866;SDS011;8550;52.596;13.320;2022-12-07T01:02:48;5.70;;;2.10;;
16866;SDS011;8550;52.596;13.320;2022-12-07T01:07:50;6.87;;;2.63;;
16866;SDS011;8550;52.596;13.320;2022-12-07T01:12:52;5.13;;;1.85;;
16866;SDS011;8550;52.596;13.320;2022-12-07T01:17:55;7.07;;;3.35;;
16866;SDS011;8550;52.596;13.320;2022-12-07T01:22:57;5.50;;;1.93;;
16866;SDS011;8550;52.596;13.320;2022-12-07T01:28:00;6.10;;;2.73;;
16866;SDS011;8550;52.596;13.320;2022-12-07T01:33:03;11.57;;;2.95;;
16866;SDS011;8550;52.596;13.320;2022-12-07T01:38:05;6.18;;;2.35;;
16866;SDS011;8550;52.596;13.320;2022-12-07T01:43:09;5.07;;;1.90;;
16866;SDS011;8550;52.596;13.320;2022-12-07T01:48:19;4.63;;;1.77;;
16866;SDS011;8550;52.596;13.320;2022-12-07T01:53:24;5.40;;;1.77;;
16866;SDS011;8550;52.596;13.320;2022-12-07T01:58:29;6.00;;;2.47;;
16866;SDS011;8550;52.596;13.320;2022-12-07T02:03:34;3.08;;;1.48;;
16866;SDS011;8550;52.596;13.320;2022-12-07T02:08:39;6.80;;;1.90;;
16866;SDS011;8550;52.596;13.320;2022-12-07T02:13:42;6.17;;;1.97;;
16866;SDS011;8550;52.596;13.320;2022-12-07T02:18:51;5.63;;;2.63;;
16866;SDS011;8550;52.596;13.320;2022-12-07T02:24:28;4.30;;;1.90;;
16866;SDS011;8550;52.596;13.320;2022-12-07T02:29:44;3.03;;;1.27;;
16866;SDS011;8550;52.596;13.320;2022-12-07T02:34:51;3.30;;;1.47;;
16866;SDS011;8550;52.596;13.320;2022-12-07T02:40:00;5.50;;;2.28;;
16866;SDS011;8550;52.596;13.320;2022-12-07T02:45:12;4.55;;;1.90;;
16866;SDS011;8550;52.596;13.320;2022-12-07T02:50:17;3.20;;;1.57;;
16866;SDS011;8550;52.596;13.320;2022-12-07T02:55:22;7.97;;;2.97;;
16866;SDS011;8550;52.596;13.320;2022-12-07T03:00:30;6.70;;;2.60;;
16866;SDS011;8550;52.596;13.320;2022-12-07T03:05:45;3.37;;;1.63;;
16866;SDS011;8550;52.596;13.320;2022-12-07T03:10:59;6.87;;;2.97;;
16866;SDS011;8550;52.596;13.320;2022-12-07T03:16:07;5.13;;;1.52;;
16866;SDS011;8550;52.596;13.320;2022-12-07T03:21:17;7.28;;;2.95;;
16866;SDS011;8550;52.596;13.320;2022-12-07T03:26:22;7.33;;;2.93;;
16866;SDS011;8550;52.596;13.320;2022-12-07T03:31:33;7.70;;;2.83;;
16866;SDS011;8550;52.596;13.320;2022-12-07T03:36:39;8.05;;;2.85;;
16866;SDS011;8550;52.596;13.320;2022-12-07T03:41:46;6.63;;;3.77;;
16866;SDS011;8550;52.596;13.320;2022-12-07T03:46:50;8.07;;;3.53;;
16866;SDS011;8550;52.596;13.320;2022-12-07T03:52:02;5.28;;;3.28;;
16866;SDS011;8550;52.596;13.320;2022-12-07T03:57:10;5.93;;;3.37;;
16866;SDS011;8550;52.596;13.320;2022-12-07T04:02:15;7.70;;;3.37;;
16866;SDS011;8550;52.596;13.320;2022-12-07T04:07:17;7.05;;;3.20;;
16866;SDS011;8550;52.596;13.320;2022-12-07T04:12:19;10.65;;;3.00;;
16866;SDS011;8550;52.596;13.320;2022-12-07T04:17:22;8.57;;;2.40;;
16866;SDS011;8550;52.596;13.320;2022-12-07T04:22:24;5.07;;;2.25;;
16866;SDS011;8550;52.596;13.320;2022-12-07T04:27:26;7.80;;;3.05;;
16866;SDS011;8550;52.596;13.320;2022-12-07T04:32:29;8.47;;;3.33;;
16866;SDS011;8550;52.596;13.320;2022-12-07T04:37:31;8.23;;;3.35;;
16866;SDS011;8550;52.596;13.320;2022-12-07T04:42:33;4.20;;;2.50;;
16866;SDS011;8550;52.596;13.320;2022-12-07T04:47:37;6.97;;;3.60;;
16866;SDS011;8550;52.596;13.320;2022-12-07T04:52:39;4.87;;;2.63;;
16866;SDS011;8550;52.596;13.320;2022-12-07T04:57:41;11.65;;;4.43;;
16866;SDS011;8550;52.596;13.320;2022-12-07T05:02:44;8.23;;;4.15;;
16866;SDS011;8550;52.596;13.320;2022-12-07T05:07:46;8.93;;;4.23;;
16866;SDS011;8550;52.596;13.320;2022-12-07T05:12:48;14.55;;;4.93;;
16866;SDS011;8550;52.596;13.320;2022-12-07T05:17:51;10.48;;;4.97;;
16866;SDS011;8550;52.596;13.320;2022-12-07T05:22:53;10.50;;;4.37;;
16866;SDS011;8550;52.596;13.320;2022-12-07T05:27:55;10.43;;;3.63;;
16866;SDS011;8550;52.596;13.320;2022-12-07T05:38:23;9.90;;;5.03;;
16866;SDS011;8550;52.596;13.320;2022-12-07T05:43:25;2.13;;;1.00;;
16866;SDS011;8550;52.596;13.320;2022-12-07T05:48:28;9.75;;;5.00;;
16866;SDS011;8550;52.596;13.320;2022-12-07T05:53:30;10.30;;;4.55;;
16866;SDS011;8550;52.596;13.320;2022-12-07T05:58:32;15.47;;;5.93;;
16866;SDS011;8550;52.596;13.320;2022-12-07T06:03:52;8.35;;;4.43;;
16866;SDS011;8550;52.596;13.320;2022-12-07T06:08:54;7.47;;;4.68;;
16866;SDS011;8550;52.596;13.320;2022-12-07T06:13:56;11.37;;;4.63;;
16866;SDS011;8550;52.596;13.320;2022-12-07T06:18:59;10.38;;;4.78;;
16866;SDS011;8550;52.596;13.320;2022-12-07T06:24:01;7.90;;;4.03;;
16866;SDS011;8550;52.596;13.320;2022-12-07T06:29:03;9.30;;;4.77;;
16866;SDS011;8550;52.596;13.320;2022-12-07T06:34:09;7.43;;;2.77;;
16866;SDS011;8550;52.596;13.320;2022-12-07T06:39:12;7.50;;;2.85;;
16866;SDS011;8550;52.596;13.320;2022-12-07T06:44:14;12.52;;;4.32;;
16866;SDS011;8550;52.596;13.320;2022-12-07T06:49:18;5.60;;;3.37;;
16866;SDS011;8550;52.596;13.320;2022-12-07T06:54:20;8.88;;;4.43;;
16866;SDS011;8550;52.596;13.320;2022-12-07T06:59:22;8.88;;;2.28;;
16866;SDS011;8550;52.596;13.320;2022-12-07T07:04:25;10.03;;;5.07;;
16866;SDS011;8550;52.596;13.320;2022-12-07T07:09:27;12.02;;;5.63;;
16866;SDS011;8550;52.596;13.320;2022-12-07T07:14:29;6.80;;;4.00;;
16866;SDS011;8550;52.596;13.320;2022-12-07T07:19:32;14.10;;;5.97;;
16866;SDS011;8550;52.596;13.320;2022-12-07T07:24:34;11.23;;;5.27;;
16866;SDS011;8550;52.596;13.320;2022-12-07T07:29:36;5.50;;;2.80;;
16866;SDS011;8550;52.596;13.320;2022-12-07T07:34:40;10.32;;;4.43;;
16866;SDS011;8550;52.596;13.320;2022-12-07T07:39:42;11.43;;;5.40;;
16866;SDS011;8550;52.596;13.320;2022-12-07T07:44:44;5.90;;;2.72;;
16866;SDS011;8550;52.596;13.320;2022-12-07T07:49:47;8.30;;;3.03;;
16866;SDS011;8550;52.596;13.320;2022-12-07T07:54:49;3.50;;;1.37;;
16866;SDS011;8550;52.596;13.320;2022-12-07T07:59:52;1.55;;;0.95;;
16866;SDS011;8550;52.596;13.320;2022-12-07T08:04:56;5.95;;;2.75;;
16866;SDS011;8550;52.596;13.320;2022-12-07T08:09:58;5.33;;;2.20;;
16866;SDS011;8550;52.596;13.320;2022-12-07T08:14:59;7.60;;;3.07;;
16866;SDS011;8550;52.596;13.320;2022-12-07T08:20:03;7.95;;;2.63;;
16866;SDS011;8550;52.596;13.320;2022-12-07T08:25:06;4.15;;;1.45;;
16866;SDS011;8550;52.596;13.320;2022-12-07T08:30:09;2.97;;;1.27;;
16866;SDS011;8550;52.596;13.320;2022-12-07T08:35:13;5.13;;;1.73;;
16866;SDS011;8550;52.596;13.320;2022-12-07T08:40:15;4.93;;;2.03;;
16866;SDS011;8550;52.596;13.320;2022-12-07T08:45:19;5.80;;;1.70;;
16866;SDS011;8550;52.596;13.320;2022-12-07T08:50:23;5.88;;;1.17;;
16866;SDS011;8550;52.596;13.320;2022-12-07T08:55:26;6.18;;;1.90;;
16866;SDS011;8550;52.596;13.320;2022-12-07T09:00:29;2.70;;;1.13;;
16866;SDS011;8550;52.596;13.320;2022-12-07T09:05:32;0.90;;;0.47;;
16866;SDS011;8550;52.596;13.320;2022-12-07T09:10:35;4.35;;;1.08;;
16866;SDS011;8550;52.596;13.320;2022-12-07T09:15:37;1.13;;;0.40;;
16866;SDS011;8550;52.596;13.320;2022-12-07T09:20:40;1.03;;;0.40;;
16866;SDS011;8550;52.596;13.320;2022-12-07T09:25:42;1.50;;;0.68;;
16866;SDS011;8550;52.596;13.320;2022-12-07T09:30:45;1.65;;;0.60;;
16866;SDS011;8550;52.596;13.320;2022-12-07T09:35:49;1.70;;;0.63;;
16866;SDS011;8550;52.596;13.320;2022-12-07T09:40:53;0.93;;;0.32;;
16866;SDS011;8550;52.596;13.320;2022-12-07T09:45:56;3.03;;;1.08;;
16866;SDS011;8550;52.596;13.320;2022-12-07T09:51:00;2.07;;;0.40;;
16866;SDS011;8550;52.596;13.320;2022-12-07T09:56:03;2.20;;;0.83;;
16866;SDS011;8550;52.596;13.320;2022-12-07T10:01:09;1.25;;;0.43;;
16866;SDS011;8550;52.596;13.320;2022-12-07T10:06:15;1.52;;;0.30;;
16866;SDS011;8550;52.596;13.320;2022-12-07T10:11:17;2.40;;;0.50;;
16866;SDS011;8550;52.596;13.320;2022-12-07T10:16:31;1.27;;;0.45;;
16866;SDS011;8550;52.596;13.320;2022-12-07T10:21:39;0.85;;;0.40;;
16866;SDS011;8550;52.596;13.320;2022-12-07T10:27:31;0.80;;;0.30;;
16866;SDS011;8550;52.596;13.320;2022-12-07T10:32:53;0.30;;;0.10;;
16866;SDS011;8550;52.596;13.320;2022-12-07T10:37:58;0.80;;;0.30;;
16866;SDS011;8550;52.596;13.320;2022-12-07T10:43:01;2.03;;;0.70;;
16866;SDS011;8550;52.596;13.320;2022-12-07T10:48:06;2.17;;;0.80;;
16866;SDS011;8550;52.596;13.320;2022-12-07T10:53:26;1.42;;;0.45;;
16866;SDS011;8550;52.596;13.320;2022-12-07T10:58:44;2.15;;;1.13;;
16866;SDS011;8550;52.596;13.320;2022-12-07T11:15:12;2.15;;;0.82;;
16866;SDS011;8550;52.596;13.320;2022-12-07T11:20:23;2.37;;;0.97;;
16866;SDS011;8550;52.596;13.320;2022-12-07T11:25:46;2.55;;;0.68;;
16866;SDS011;8550;52.596;13.320;2022-12-07T11:30:56;2.88;;;1.15;;
16866;SDS011;8550;52.596;13.320;2022-12-07T11:36:06;1.27;;;0.50;;
16866;SDS011;8550;52.596;13.320;2022-12-07T11:41:20;2.30;;;0.90;;
16866;SDS011;8550;52.596;13.320;2022-12-07T11:46:27;4.25;;;1.52;;
16866;SDS011;8550;52.596;13.320;2022-12-07T11:51:37;2.50;;;0.85;;
16866;SDS011;8550;52.596;13.320;2022-12-07T11:56:43;1.30;;;0.43;;
16866;SDS011;8550;52.596;13.320;2022-12-07T12:01:51;2.67;;;1.23;;
16866;SDS011;8550;52.596;13.320;2022-12-07T12:06:56;0.93;;;0.40;;
16866;SDS011;8550;52.596;13.320;2022-12-07T12:12:05;3.77;;;1.00;;
16866;SDS011;8550;52.596;13.320;2022-12-07T12:17:49;3.90;;;1.10;;
16866;SDS011;8550;52.596;13.320;2022-12-07T12:23:10;3.72;;;1.17;;
16866;SDS011;8550;52.596;13.320;2022-12-07T12:28:20;3.37;;;0.73;;
16866;SDS011;8550;52.596;13.320;2022-12-07T12:33:26;2.53;;;1.03;;
16866;SDS011;8550;52.596;13.320;2022-12-07T12:38:31;1.85;;;0.75;;
16866;SDS011;8550;52.596;13.320;2022-12-07T12:43:47;2.85;;;1.02;;
16866;SDS011;8550;52.596;13.320;2022-12-07T12:48:53;5.23;;;0.87;;
16866;SDS011;8550;52.596;13.320;2022-12-07T12:54:03;3.88;;;1.38;;
16866;SDS011;8550;52.596;13.320;2022-12-07T12:59:23;2.22;;;0.68;;
16866;SDS011;8550;52.596;13.320;2022-12-07T13:04:47;6.20;;;1.50;;
16866;SDS011;8550;52.596;13.320;2022-12-07T13:09:51;3.40;;;0.85;;
16866;SDS011;8550;52.596;13.320;2022-12-07T13:14:56;0.75;;;0.25;;
16866;SDS011;8550;52.596;13.320;2022-12-07T13:19:59;1.63;;;0.73;;
16866;SDS011;8550;52.596;13.320;2022-12-07T13:25:03;1.57;;;0.50;;
16866;SDS011;8550;52.596;13.320;2022-12-07T13:30:15;8.98;;;0.82;;
16866;SDS011;8550;52.596;13.320;2022-12-07T13:35:32;2.70;;;0.60;;
16866;SDS011;8550;52.596;13.320;2022-12-07T13:40:37;0.90;;;0.40;;
16866;SDS011;8550;52.596;13.320;2022-12-07T13:45:42;1.15;;;0.40;;
16866;SDS011;8550;52.596;13.320;2022-12-07T13:50:53;6.25;;;0.73;;
16866;SDS011;8550;52.596;13.320;2022-12-07T13:55:57;1.17;;;0.50;;
16866;SDS011;8550;52.596;13.320;2022-12-07T14:01:02;0.85;;;0.30;;
16866;SDS011;8550;52.596;13.320;2022-12-07T14:11:28;0.27;;;0.13;;
16866;SDS011;8550;52.596;13.320;2022-12-07T14:16:34;2.43;;;0.67;;
16866;SDS011;8550;52.596;13.320;2022-12-07T14:21:38;1.05;;;0.20;;
16866;SDS011;8550;52.596;13.320;2022-12-07T14:26:40;0.80;;;0.25;;
16866;SDS011;8550;52.596;13.320;2022-12-07T14:31:44;2.80;;;0.50;;
16866;SDS011;8550;52.596;13.320;2022-12-07T14:36:46;2.50;;;0.98;;
16866;SDS011;8550;52.596;13.320;2022-12-07T14:41:48;4.22;;;0.68;;
16866;SDS011;8550;52.596;13.320;2022-12-07T14:46:54;2.70;;;0.93;;
16866;SDS011;8550;52.596;13.320;2022-12-07T14:51:56;2.47;;;0.70;;
16866;SDS011;8550;52.596;13.320;2022-12-07T14:56:59;0.90;;;0.40;;
16866;SDS011;8550;52.596;13.320;2022-12-07T15:02:03;1.90;;;0.60;;
16866;SDS011;8550;52.596;13.320;2022-12-07T15:07:08;1.53;;;0.60;;
16866;SDS011;8550;52.596;13.320;2022-12-07T15:12:14;1.63;;;0.60;;
16866;SDS011;8550;52.596;13.320;2022-12-07T15:17:17;1.02;;;0.35;;
16866;SDS011;8550;52.596;13.320;2022-12-07T15:22:19;0.60;;;0.20;;
16866;SDS011;8550;52.596;13.320;2022-12-07T15:27:21;3.00;;;0.40;;
16866;SDS011;8550;52.596;13.320;2022-12-07T15:32:24;5.28;;;0.73;;
16866;SDS011;8550;52.596;13.320;2022-12-07T15:37:26;3.60;;;0.60;;
16866;SDS011;8550;52.596;13.320;2022-12-07T15:42:28;3.22;;;0.70;;
16866;SDS011;8550;52.596;13.320;2022-12-07T15:47:31;2.50;;;0.82;;
16866;SDS011;8550;52.596;13.320;2022-12-07T15:52:37;13.50;;;1.03;;
16866;SDS011;8550;52.596;13.320;2022-12-07T15:57:39;2.53;;;0.70;;
16866;SDS011;8550;52.596;13.320;2022-12-07T16:02:42;13.20;;;0.95;;
16866;SDS011;8550;52.596;13.320;2022-12-07T16:07:46;5.65;;;0.65;;
16866;SDS011;8550;52.596;13.320;2022-12-07T16:12:48;4.10;;;0.20;;
16866;SDS011;8550;52.596;13.320;2022-12-07T16:17:51;0.63;;;0.20;;
16866;SDS011;8550;52.596;13.320;2022-12-07T16:22:55;1.33;;;0.43;;
16866;SDS011;8550;52.596;13.320;2022-12-07T16:27:57;0.63;;;0.20;;
16866;SDS011;8550;52.596;13.320;2022-12-07T16:33:00;1.13;;;0.25;;
16866;SDS011;8550;52.596;13.320;2022-12-07T16:38:02;2.72;;;1.40;;
16866;SDS011;8550;52.596;13.320;2022-12-07T16:43:04;1.50;;;0.60;;
16866;SDS011;8550;52.596;13.320;2022-12-07T16:48:07;2.37;;;1.40;;
16866;SDS011;8550;52.596;13.320;2022-12-07T16:53:09;2.08;;;0.77;;
16866;SDS011;8550;52.596;13.320;2022-12-07T16:58:13;1.38;;;0.45;;
16866;SDS011;8550;52.596;13.320;2022-12-07T17:03:17;0.57;;;0.20;;
16866;SDS011;8550;52.596;13.320;2022-12-07T17:08:19;0.50;;;0.10;;
16866;SDS011;8550;52.596;13.320;2022-12-07T17:13:20;1.00;;;0.50;;
16866;SDS011;8550;52.596;13.320;2022-12-07T17:18:41;2.87;;;0.97;;
16866;SDS011;8550;52.596;13.320;2022-12-07T17:23:43;1.17;;;0.38;;
16866;SDS011;8550;52.596;13.320;2022-12-07T17:28:46;5.55;;;0.65;;
16866;SDS011;8550;52.596;13.320;2022-12-07T17:33:49;8.13;;;0.50;;
16866;SDS011;8550;52.596;13.320;2022-12-07T17:38:51;4.30;;;0.80;;
16866;SDS011;8550;52.596;13.320;2022-12-07T17:43:54;4.60;;;0.98;;
16866;SDS011;8550;52.596;13.320;2022-12-07T17:48:57;1.15;;;0.50;;
16866;SDS011;8550;52.596;13.320;2022-12-07T17:53:59;2.30;;;0.90;;
16866;SDS011;8550;52.596;13.320;2022-12-07T17:59:01;2.83;;;1.05;;
16866;SDS011;8550;52.596;13.320;2022-12-07T18:04:06;5.88;;;0.95;;
16866;SDS011;8550;52.596;13.320;2022-12-07T18:09:09;3.43;;;0.50;;
16866;SDS011;8550;52.596;13.320;2022-12-07T18:14:11;2.40;;;0.70;;
16866;SDS011;8550;52.596;13.320;2022-12-07T18:19:15;1.23;;;0.43;;
16866;SDS011;8550;52.596;13.320;2022-12-07T18:24:17;3.20;;;1.00;;
16866;SDS011;8550;52.596;13.320;2022-12-07T18:29:19;1.53;;;0.70;;
16866;SDS011;8550;52.596;13.320;2022-12-07T18:34:23;0.93;;;0.40;;
16866;SDS011;8550;52.596;13.320;2022-12-07T18:39:27;4.55;;;1.15;;
16866;SDS011;8550;52.596;13.320;2022-12-07T18:44:31;4.03;;;0.80;;
16866;SDS011;8550;52.596;13.320;2022-12-07T18:49:37;2.35;;;0.90;;
16866;SDS011;8550;52.596;13.320;2022-12-07T18:54:39;6.40;;;1.15;;
16866;SDS011;8550;52.596;13.320;2022-12-07T18:59:41;7.80;;;0.87;;
16866;SDS011;8550;52.596;13.320;2022-12-07T19:04:48;2.90;;;0.88;;
16866;SDS011;8550;52.596;13.320;2022-12-07T19:09:50;2.88;;;1.02;;
16866;SDS011;8550;52.596;13.320;2022-12-07T19:14:52;1.77;;;0.67;;
16866;SDS011;8550;52.596;13.320;2022-12-07T19:19:56;6.73;;;0.93;;
16866;SDS011;8550;52.596;13.320;2022-12-07T19:24:58;1.77;;;0.98;;
16866;SDS011;8550;52.596;13.320;2022-12-07T19:30:00;3.47;;;0.85;;
16866;SDS011;8550;52.596;13.320;2022-12-07T19:35:04;14.83;;;1.60;;
16866;SDS011;8550;52.596;13.320;2022-12-07T19:40:07;3.75;;;1.00;;
16866;SDS011;8550;52.596;13.320;2022-12-07T19:45:10;2.45;;;1.13;;
16866;SDS011;8550;52.596;13.320;2022-12-07T19:50:13;3.80;;;1.47;;
16866;SDS011;8550;52.596;13.320;2022-12-07T19:55:15;4.95;;;1.73;;
16866;SDS011;8550;52.596;13.320;2022-12-07T20:00:17;1.23;;;0.50;;
16866;SDS011;8550;52.596;13.320;2022-12-07T20:05:21;1.37;;;0.50;;
16866;SDS011;8550;52.596;13.320;2022-12-07T20:10:24;1.03;;;0.57;;
16866;SDS011;8550;52.596;13.320;2022-12-07T20:15:26;1.88;;;0.60;;
16866;SDS011;8550;52.596;13.320;2022-12-07T20:20:30;12.63;;;0.77;;
16866;SDS011;8550;52.596;13.320;2022-12-07T20:25:34;1.70;;;0.77;;
16866;SDS011;8550;52.596;13.320;2022-12-07T20:30:36;0.73;;;0.22;;
16866;SDS011;8550;52.596;13.320;2022-12-07T20:35:40;1.60;;;0.80;;
16866;SDS011;8550;52.596;13.320;2022-12-07T20:40:44;2.60;;;0.83;;
16866;SDS011;8550;52.596;13.320;2022-12-07T20:45:48;4.43;;;1.38;;
16866;SDS011;8550;52.596;13.320;2022-12-07T20:50:52;3.15;;;1.38;;
16866;SDS011;8550;52.596;13.320;2022-12-07T20:55:55;2.33;;;1.13;;
16866;SDS011;8550;52.596;13.320;2022-12-07T21:00:58;3.37;;;1.37;;
16866;SDS011;8550;52.596;13.320;2022-12-07T21:06:02;3.47;;;1.38;;
16866;SDS011;8550;52.596;13.320;2022-12-07T21:11:07;3.03;;;1.23;;
16866;SDS011;8550;52.596;13.320;2022-12-07T21:16:10;2.17;;;0.90;;
16866;SDS011;8550;52.596;13.320;2022-12-07T21:21:15;5.93;;;1.20;;
16866;SDS011;8550;52.596;13.320;2022-12-07T21:26:19;2.28;;;1.00;;
16866;SDS011;8550;52.596;13.320;2022-12-07T21:31:22;3.03;;;1.00;;
16866;SDS011;8550;52.596;13.320;2022-12-07T21:36:26;3.77;;;1.27;;
16866;SDS011;8550;52.596;13.320;2022-12-07T21:41:29;2.70;;;1.23;;
16866;SDS011;8550;52.596;13.320;2022-12-07T21:46:33;4.63;;;1.58;;
16866;SDS011;8550;52.596;13.320;2022-12-07T21:51:37;7.20;;;1.70;;
16866;SDS011;8550;52.596;13.320;2022-12-07T21:56:40;2.27;;;1.30;;
16866;SDS011;8550;52.596;13.320;2022-12-07T22:01:44;7.85;;;2.15;;
16866;SDS011;8550;52.596;13.320;2022-12-07T22:06:48;3.47;;;1.70;;
16866;SDS011;8550;52.596;13.320;2022-12-07T22:11:51;4.77;;;1.80;;
16866;SDS011;8550;52.596;13.320;2022-12-07T22:16:54;4.32;;;1.60;;
16866;SDS011;8550;52.596;13.320;2022-12-07T22:21:59;5.45;;;1.60;;
16866;SDS011;8550;52.596;13.320;2022-12-07T22:27:01;11.10;;;1.50;;
16866;SDS011;8550;52.596;13.320;2022-12-07T22:32:03;5.70;;;1.90;;
16866;SDS011;8550;52.596;13.320;2022-12-07T22:37:07;4.43;;;1.67;;
16866;SDS011;8550;52.596;13.320;2022-12-07T22:42:09;2.20;;;0.80;;
16866;SDS011;8550;52.596;13.320;2022-12-07T22:47:11;5.70;;;1.43;;
16866;SDS011;8550;52.596;13.320;2022-12-07T22:52:15;5.85;;;1.95;;
16866;SDS011;8550;52.596;13.320;2022-12-07T22:57:17;3.80;;;1.80;;
16866;SDS011;8550;52.596;13.320;2022-12-07T23:02:19;3.63;;;1.20;;
16866;SDS011;8550;52.596;13.320;2022-12-07T23:07:22;3.80;;;1.20;;
16866;SDS011;8550;52.596;13.320;2022-12-07T23:12:24;4.13;;;1.98;;
16866;SDS011;8550;52.596;13.320;2022-12-07T23:17:44;3.53;;;1.60;;
16866;SDS011;8550;52.596;13.320;2022-12-07T23:22:47;2.73;;;1.13;;
16866;SDS011;8550;52.596;13.320;2022-12-07T23:27:49;5.45;;;2.10;;
16866;SDS011;8550;52.596;13.320;2022-12-07T23:32:51;3.13;;;1.30;;
16866;SDS011;8550;52.596;13.320;2022-12-07T23:37:55;3.60;;;1.20;;
16866;SDS011;8550;52.596;13.320;2022-12-07T23:42:57;3.03;;;1.33;;
16866;SDS011;8550;52.596;13.320;2022-12-07T23:47:58;4.13;;;1.50;;
16866;SDS011;8550;52.596;13.320;2022-12-07T23:53:02;3.83;;;1.00;;
